createdAt,value
2016-11-13T00:00:47.526Z,3.24
2016-11-13T00:01:48.216Z,3.17
2016-11-13T00:02:47.830Z,3.31
2016-11-13T00:03:46.821Z,3.31
2016-11-13T00:04:47.791Z,3.37
2016-11-13T00:05:47.504Z,3.35
2016-11-13T00:06:46.842Z,3.1
2016-11-13T00:07:47.440Z,3.07
2016-11-13T00:08:47.370Z,3.05
2016-11-13T00:09:47.665Z,3.06
2016-11-13T00:10:47.638Z,3.23
2016-11-13T00:11:47.383Z,2.97
2016-11-13T00:12:47.235Z,2.98
2016-11-13T00:13:47.553Z,3.09
2016-11-13T00:14:46.902Z,3.09
2016-11-13T00:15:46.941Z,3.21
2016-11-13T00:16:47.853Z,3.17
2016-11-13T00:17:47.140Z,3.19
2016-11-13T00:18:47.412Z,3.15
2016-11-13T00:19:46.790Z,3.15
2016-11-13T00:20:47.124Z,3.24
2016-11-13T00:21:47.691Z,3.43
2016-11-13T00:22:47.716Z,3.31
2016-11-13T00:23:46.813Z,3.34
2016-11-13T00:24:47.263Z,3.4
2016-11-13T00:25:46.680Z,3.28
2016-11-13T00:26:47.606Z,3.25
2016-11-13T00:27:47.563Z,3.19
2016-11-13T00:28:46.802Z,3.34
2016-11-13T00:29:46.823Z,3.23
2016-11-13T00:30:46.473Z,3.15
2016-11-13T00:31:46.782Z,3.17
2016-11-13T00:32:46.762Z,3.21
2016-11-13T00:33:46.402Z,3.23
2016-11-13T00:34:46.331Z,3.13
2016-11-13T00:35:46.673Z,3.16
2016-11-13T00:36:46.091Z,3.15
2016-11-13T00:37:46.661Z,3.35
2016-11-13T00:38:46.475Z,3.35
2016-11-13T00:39:45.952Z,3.35
2016-11-13T00:40:46.605Z,3.21
2016-11-13T00:41:47.292Z,3.21
2016-11-13T00:42:47.007Z,3.15
2016-11-13T00:43:46.810Z,3.19
2016-11-13T00:44:46.433Z,3.17
2016-11-13T00:45:46.458Z,3.28
2016-11-13T00:46:45.838Z,3.25
2016-11-13T00:47:46.695Z,3.15
2016-11-13T00:48:46.653Z,3.09
2016-11-13T00:49:45.694Z,3.24
2016-11-13T00:50:46.362Z,3.28
2016-11-13T00:51:46.802Z,3.56
2016-11-13T00:52:45.629Z,3.35
2016-11-13T00:53:46.904Z,3.47
2016-11-13T00:54:46.244Z,3.56
2016-11-13T00:55:46.482Z,3.57
2016-11-13T00:56:45.562Z,3.44
2016-11-13T00:57:46.431Z,3.54
2016-11-13T00:58:46.743Z,3.5
2016-11-13T00:59:45.383Z,3.24
2016-11-13T01:00:46.103Z,3.21
2016-11-13T01:01:45.944Z,3.1
2016-11-13T01:02:45.926Z,3.13
2016-11-13T01:03:46.652Z,2.97
2016-11-13T01:04:46.242Z,2.99
2016-11-13T01:05:45.953Z,2.94
2016-11-13T01:06:45.866Z,2.91
2016-11-13T01:07:46.415Z,2.8
2016-11-13T01:08:46.486Z,2.99
2016-11-13T01:09:45.485Z,3.06
2016-11-13T01:10:45.932Z,3.06
2016-11-13T01:11:46.460Z,2.91
2016-11-13T01:12:46.432Z,2.99
2016-11-13T01:13:45.605Z,2.99
2016-11-13T01:14:46.069Z,2.97
2016-11-13T01:15:46.366Z,3.07
2016-11-13T01:16:45.345Z,3.03
2016-11-13T01:17:45.395Z,2.99
2016-11-13T01:18:44.942Z,3.03
2016-11-13T01:19:45.593Z,3.1
2016-11-13T01:20:45.576Z,3.1
2016-11-13T01:21:45.174Z,3.15
2016-11-13T01:22:46.154Z,3.19
2016-11-13T01:23:45.484Z,3.25
2016-11-13T01:24:45.446Z,3.24
2016-11-13T01:25:45.435Z,3.24
2016-11-13T01:26:46.023Z,3.24
2016-11-13T01:27:45.387Z,3.24
2016-11-13T01:28:45.353Z,3.16
2016-11-13T01:29:45.297Z,3.21
2016-11-13T01:30:45.266Z,3.25
2016-11-13T01:31:45.165Z,3.06
2016-11-13T01:32:44.973Z,3.02
2016-11-13T01:33:45.273Z,2.85
2016-11-13T01:34:45.818Z,2.79
2016-11-13T01:35:45.246Z,2.84
2016-11-13T01:36:45.174Z,2.85
2016-11-13T01:37:45.187Z,2.77
2016-11-13T01:38:45.109Z,2.91
2016-11-13T01:39:44.958Z,2.76
2016-11-13T01:40:45.042Z,2.91
2016-11-13T01:41:45.077Z,2.99
2016-11-13T01:42:45.244Z,3.09
2016-11-13T01:43:45.448Z,3.05
2016-11-13T01:44:44.222Z,3.02
2016-11-13T01:45:45.002Z,2.98
2016-11-13T01:46:44.846Z,2.81
2016-11-13T01:47:45.114Z,2.91
2016-11-13T01:48:44.157Z,2.84
2016-11-13T01:49:45.434Z,2.88
2016-11-13T01:50:44.685Z,2.85
2016-11-13T01:51:44.403Z,2.89
2016-11-13T01:52:44.373Z,2.84
2016-11-13T01:53:45.333Z,2.77
2016-11-13T01:54:44.623Z,2.81
2016-11-13T01:55:44.293Z,2.81
2016-11-13T01:56:44.643Z,2.85
2016-11-13T01:57:44.466Z,2.87
2016-11-13T01:58:43.905Z,2.85
2016-11-13T01:59:44.543Z,2.8
2016-11-13T02:00:44.106Z,2.74
2016-11-13T02:01:44.627Z,2.7
2016-11-13T02:02:44.796Z,2.74
2016-11-13T02:03:44.693Z,2.7
2016-11-13T02:04:44.443Z,2.69
2016-11-13T02:05:44.670Z,2.73
2016-11-13T02:06:44.404Z,2.69
2016-11-13T02:07:44.622Z,2.66
2016-11-13T02:08:44.960Z,2.69
2016-11-13T02:09:44.260Z,2.67
2016-11-13T02:10:44.931Z,2.71
2016-11-13T02:11:44.863Z,2.76
2016-11-13T02:12:44.264Z,2.91
2016-11-13T02:13:43.525Z,2.98
2016-11-13T02:14:44.105Z,2.98
2016-11-13T02:15:44.634Z,2.98
2016-11-13T02:16:44.596Z,2.92
2016-11-13T02:17:44.125Z,2.95
2016-11-13T02:18:44.103Z,2.99
2016-11-13T02:19:44.664Z,2.95
2016-11-13T02:20:43.642Z,2.89
2016-11-13T02:21:44.236Z,2.85
2016-11-13T02:22:43.837Z,2.79
2016-11-13T02:23:43.787Z,2.79
2016-11-13T02:24:43.226Z,2.94
2016-11-13T02:25:43.514Z,3.06
2016-11-13T02:26:43.944Z,3.07
2016-11-13T02:27:44.123Z,3.05
2016-11-13T02:28:43.652Z,3.13
2016-11-13T02:29:43.405Z,3.24
2016-11-13T02:30:43.908Z,3.23
2016-11-13T02:31:43.714Z,3.13
2016-11-13T02:32:43.955Z,3.05
2016-11-13T02:33:44.299Z,3.16
2016-11-13T02:34:43.833Z,3.21
2016-11-13T02:35:43.561Z,3.17
2016-11-13T02:36:43.676Z,3.15
2016-11-13T02:37:43.870Z,3.28
2016-11-13T02:38:43.165Z,3.43
2016-11-13T02:39:42.840Z,3.49
2016-11-13T02:40:44.096Z,3.4
2016-11-13T02:41:44.094Z,3.47
2016-11-13T02:42:43.010Z,3.37
2016-11-13T02:43:44.054Z,3.42
2016-11-13T02:44:42.705Z,3.4
2016-11-13T02:45:43.824Z,3.52
2016-11-13T02:46:43.395Z,3.42
2016-11-13T02:47:43.312Z,3.52
2016-11-13T02:48:43.135Z,3.5
2016-11-13T02:49:42.573Z,3.33
2016-11-13T02:50:42.822Z,3.42
2016-11-13T02:51:43.143Z,3.47
2016-11-13T02:52:43.139Z,3.44
2016-11-13T02:53:43.045Z,3.42
2016-11-13T02:54:42.704Z,3.31
2016-11-13T02:55:43.735Z,3.25
2016-11-13T02:56:43.071Z,3.07
2016-11-13T02:57:43.313Z,3.23
2016-11-13T02:58:43.636Z,3.1
2016-11-13T02:59:42.265Z,3.06
2016-11-13T03:00:43.604Z,3.15
2016-11-13T03:01:42.823Z,3.05
2016-11-13T03:02:42.556Z,3.12
2016-11-13T03:03:42.473Z,3.13
2016-11-13T03:04:42.765Z,3.16
2016-11-13T03:05:42.861Z,3.12
2016-11-13T03:06:43.093Z,3.05
2016-11-13T03:07:42.583Z,3.16
2016-11-13T03:08:43.409Z,3.07
2016-11-13T03:09:43.374Z,3.1
2016-11-13T03:10:42.712Z,3.06
2016-11-13T03:11:43.173Z,2.92
2016-11-13T03:12:42.612Z,3.03
2016-11-13T03:13:42.265Z,3.1
2016-11-13T03:14:43.227Z,3.17
2016-11-13T03:15:43.079Z,3.19
2016-11-13T03:16:43.214Z,3.1
2016-11-13T03:17:42.484Z,3.12
2016-11-13T03:18:42.132Z,2.95
2016-11-13T03:19:42.436Z,2.92
2016-11-13T03:20:42.477Z,2.89
2016-11-13T03:21:42.704Z,3.02
2016-11-13T03:22:42.774Z,2.98
2016-11-13T03:23:42.401Z,3.09
2016-11-13T03:24:41.725Z,2.98
2016-11-13T03:25:42.948Z,3.02
2016-11-13T03:26:42.964Z,3.03
2016-11-13T03:27:42.523Z,3.05
2016-11-13T03:28:41.870Z,3.12
2016-11-13T03:29:42.704Z,3.05
2016-11-13T03:30:41.643Z,3.07
2016-11-13T03:31:42.109Z,3.17
2016-11-13T03:32:41.549Z,3.1
2016-11-13T03:33:42.207Z,3.03
2016-11-13T03:34:42.723Z,2.97
2016-11-13T03:35:42.003Z,3.13
2016-11-13T03:36:41.413Z,3.15
2016-11-13T03:37:41.643Z,3.19
2016-11-13T03:38:42.002Z,3.24
2016-11-13T03:39:42.222Z,3.16
2016-11-13T03:40:42.556Z,3.16
2016-11-13T03:41:42.179Z,3.16
2016-11-13T03:42:41.883Z,3.27
2016-11-13T03:43:41.812Z,3.28
2016-11-13T03:44:42.473Z,3.13
2016-11-13T03:45:42.108Z,3.05
2016-11-13T03:46:41.475Z,2.98
2016-11-13T03:47:42.445Z,3.07
2016-11-13T03:48:41.715Z,3.02
2016-11-13T03:49:41.804Z,3.06
2016-11-13T03:50:41.536Z,3.07
2016-11-13T03:51:42.002Z,3.1
2016-11-13T03:52:41.372Z,3.07
2016-11-13T03:53:41.332Z,3.02
2016-11-13T03:54:42.176Z,3.05
2016-11-13T03:55:42.186Z,3.12
2016-11-13T03:56:42.155Z,3.06
2016-11-13T03:57:42.108Z,3.03
2016-11-13T03:58:41.436Z,3.06
2016-11-13T03:59:41.331Z,3.05
2016-11-13T04:00:41.423Z,3.15
2016-11-13T04:01:42.052Z,3.09
2016-11-13T04:02:41.296Z,3.07
2016-11-13T04:03:40.961Z,3.09
2016-11-13T04:04:40.634Z,3.12
2016-11-13T04:05:40.901Z,3.07
2016-11-13T04:06:41.245Z,3.23
2016-11-13T04:07:41.493Z,3.23
2016-11-13T04:08:41.202Z,3.21
2016-11-13T04:09:41.267Z,3.07
2016-11-13T04:10:41.166Z,3.19
2016-11-13T04:11:41.206Z,3.19
2016-11-13T04:12:40.986Z,3.19
2016-11-13T04:13:41.717Z,3.16
2016-11-13T04:14:40.675Z,3.23
2016-11-13T04:15:40.675Z,3.27
2016-11-13T04:16:40.635Z,3.23
2016-11-13T04:17:40.353Z,3.37
2016-11-13T04:18:40.954Z,3.3
2016-11-13T04:19:40.202Z,3.31
2016-11-13T04:20:41.567Z,3.24
2016-11-13T04:21:41.473Z,3.23
2016-11-13T04:22:41.352Z,3.27
2016-11-13T04:23:40.832Z,3.24
2016-11-13T04:24:41.051Z,3.25
2016-11-13T04:25:40.563Z,3.24
2016-11-13T04:26:40.608Z,3.31
2016-11-13T04:27:40.655Z,3.28
2016-11-13T04:28:40.623Z,3.24
2016-11-13T04:29:40.023Z,3.25
2016-11-13T04:30:40.897Z,3.23
2016-11-13T04:31:40.492Z,3.21
2016-11-13T04:32:40.473Z,3.24
2016-11-13T04:33:41.175Z,3.23
2016-11-13T04:34:40.555Z,3.23
2016-11-13T04:35:41.175Z,3.1
2016-11-13T04:36:40.736Z,3.1
2016-11-13T04:37:41.113Z,3.27
2016-11-13T04:38:39.750Z,3.24
2016-11-13T04:39:40.035Z,3.15
2016-11-13T04:40:40.023Z,3.28
2016-11-13T04:41:40.956Z,3.34
2016-11-13T04:42:40.585Z,3.42
2016-11-13T04:43:40.552Z,3.3
2016-11-13T04:44:40.535Z,3.28
2016-11-13T04:45:40.246Z,3.4
2016-11-13T04:46:39.555Z,3.28
2016-11-13T04:47:40.475Z,3.23
2016-11-13T04:48:40.449Z,3.19
2016-11-13T04:49:40.772Z,3.23
2016-11-13T04:50:40.382Z,3.07
2016-11-13T04:51:40.372Z,3.07
2016-11-13T04:52:40.692Z,3.02
2016-11-13T04:53:40.164Z,2.99
2016-11-13T04:54:40.066Z,2.92
2016-11-13T04:55:40.618Z,3.06
2016-11-13T04:56:40.071Z,3.1
2016-11-13T04:57:40.239Z,3.17
2016-11-13T04:58:39.934Z,3.24
2016-11-13T04:59:39.524Z,3.09
2016-11-13T05:00:39.943Z,3.13
2016-11-13T05:01:40.464Z,3.1
2016-11-13T05:02:39.276Z,3.1
2016-11-13T05:03:39.766Z,3.19
2016-11-13T05:04:39.642Z,3.25
2016-11-13T05:05:40.013Z,3.27
2016-11-13T05:06:40.063Z,3.25
2016-11-13T05:07:40.285Z,3.21
2016-11-13T05:08:39.677Z,3.33
2016-11-13T05:09:39.232Z,3.42
2016-11-13T05:10:39.594Z,3.42
2016-11-13T05:11:39.844Z,3.31
2016-11-13T05:12:39.145Z,3.31
2016-11-13T05:13:38.861Z,3.33
2016-11-13T05:14:39.788Z,3.19
2016-11-13T05:15:39.432Z,3.35
2016-11-13T05:16:39.083Z,3.34
2016-11-13T05:17:39.672Z,3.23
2016-11-13T05:18:39.032Z,3.27
2016-11-13T05:19:39.630Z,3.28
2016-11-13T05:20:40.013Z,3.28
2016-11-13T05:21:39.265Z,3.42
2016-11-13T05:22:38.625Z,3.42
2016-11-13T05:23:38.906Z,3.24
2016-11-13T05:24:39.733Z,3.19
2016-11-13T05:25:39.837Z,3.21
2016-11-13T05:26:39.796Z,3.06
2016-11-13T05:27:39.801Z,3.09
2016-11-13T05:28:38.767Z,3.06
2016-11-13T05:29:38.825Z,3.15
2016-11-13T05:30:39.046Z,3.28
2016-11-13T05:31:39.066Z,3.25
2016-11-13T05:32:39.063Z,3.21
2016-11-13T05:33:39.025Z,3.21
2016-11-13T05:34:39.016Z,3.25
2016-11-13T05:35:39.201Z,3.07
2016-11-13T05:36:38.952Z,3.07
2016-11-13T05:37:38.490Z,3.25
2016-11-13T05:38:39.198Z,3.05
2016-11-13T05:39:39.092Z,3.07
2016-11-13T05:40:39.085Z,3.07
2016-11-13T05:41:39.422Z,3.17
2016-11-13T05:42:39.445Z,3.12
2016-11-13T05:43:38.380Z,3.06
2016-11-13T05:44:38.708Z,3.03
2016-11-13T05:45:38.695Z,2.85
2016-11-13T05:46:39.285Z,2.79
2016-11-13T05:47:39.278Z,2.8
2016-11-13T05:48:38.572Z,2.77
2016-11-13T05:49:38.488Z,2.85
2016-11-13T05:50:38.514Z,2.85
2016-11-13T05:51:39.181Z,2.84
2016-11-13T05:52:38.476Z,2.89
2016-11-13T05:53:38.735Z,3.05
2016-11-13T05:54:38.722Z,3.02
2016-11-13T05:55:38.075Z,2.97
2016-11-13T05:56:38.376Z,3.06
2016-11-13T05:57:38.639Z,3.24
2016-11-13T05:58:39.003Z,3.3
2016-11-13T05:59:38.605Z,3.28
2016-11-13T06:00:37.645Z,3.24
2016-11-13T06:01:38.532Z,3.3
2016-11-13T06:02:38.509Z,3.28
2016-11-13T06:03:38.846Z,3.33
2016-11-13T06:04:37.853Z,3.34
2016-11-13T06:05:38.065Z,3.35
2016-11-13T06:06:38.785Z,3.34
2016-11-13T06:07:38.805Z,3.4
2016-11-13T06:08:38.101Z,3.4
2016-11-13T06:09:38.046Z,3.46
2016-11-13T06:10:38.324Z,3.28
2016-11-13T06:11:37.771Z,3.17
2016-11-13T06:12:37.932Z,3.15
2016-11-13T06:13:37.866Z,3.15
2016-11-13T06:14:38.632Z,3.09
2016-11-13T06:15:37.930Z,3.1
2016-11-13T06:16:37.913Z,3.05
2016-11-13T06:17:37.301Z,2.99
2016-11-13T06:18:37.281Z,2.76
2016-11-13T06:19:38.114Z,2.92
2016-11-13T06:20:37.783Z,2.97
2016-11-13T06:21:37.188Z,2.91
2016-11-13T06:22:37.692Z,3.07
2016-11-13T06:23:37.165Z,2.98
2016-11-13T06:24:37.025Z,3.06
2016-11-13T06:25:37.306Z,3.15
2016-11-13T06:26:38.300Z,3.13
2016-11-13T06:27:37.575Z,2.95
2016-11-13T06:28:38.244Z,2.97
2016-11-13T06:29:37.465Z,3.02
2016-11-13T06:30:37.822Z,2.94
2016-11-13T06:31:37.485Z,2.91
2016-11-13T06:32:37.761Z,2.91
2016-11-13T06:33:37.466Z,3.06
2016-11-13T06:34:37.067Z,3.02
2016-11-13T06:35:37.294Z,2.98
2016-11-13T06:36:36.961Z,2.95
2016-11-13T06:37:37.982Z,2.99
2016-11-13T06:38:36.646Z,2.84
2016-11-13T06:39:37.257Z,2.95
2016-11-13T06:40:37.555Z,3.06
2016-11-13T06:41:36.891Z,2.94
2016-11-13T06:42:37.746Z,2.92
2016-11-13T06:43:37.461Z,2.95
2016-11-13T06:44:37.053Z,3.02
2016-11-13T06:45:37.783Z,2.92
2016-11-13T06:46:37.121Z,3.03
2016-11-13T06:47:37.365Z,3.1
2016-11-13T06:48:36.866Z,3.05
2016-11-13T06:49:37.311Z,3.12
2016-11-13T06:50:37.729Z,3.07
2016-11-13T06:51:36.353Z,3.1
2016-11-13T06:52:36.545Z,3.09
2016-11-13T06:53:36.535Z,3.13
2016-11-13T06:54:36.303Z,3.07
2016-11-13T06:55:36.882Z,3.05
2016-11-13T06:56:36.754Z,2.95
2016-11-13T06:57:36.893Z,2.87
2016-11-13T06:58:37.083Z,2.85
2016-11-13T06:59:36.785Z,2.87
2016-11-13T07:00:36.669Z,2.98
2016-11-13T07:01:36.546Z,3.06
2016-11-13T07:02:36.962Z,3.03
2016-11-13T07:03:36.785Z,3.03
2016-11-13T07:04:36.658Z,3.13
2016-11-13T07:05:37.246Z,3.23
2016-11-13T07:06:36.602Z,3.06
2016-11-13T07:07:37.071Z,2.91
2016-11-13T07:08:36.194Z,2.76
2016-11-13T07:09:36.474Z,2.84
2016-11-13T07:10:37.132Z,2.77
2016-11-13T07:11:36.997Z,2.84
2016-11-13T07:12:36.462Z,2.97
2016-11-13T07:13:36.065Z,3.05
2016-11-13T07:14:36.882Z,3.12
2016-11-13T07:15:36.311Z,3.12
2016-11-13T07:16:35.718Z,3.28
2016-11-13T07:17:36.332Z,3.28
2016-11-13T07:18:36.232Z,3.43
2016-11-13T07:19:36.885Z,3.43
2016-11-13T07:20:36.497Z,3.17
2016-11-13T07:21:36.197Z,3.33
2016-11-13T07:22:35.761Z,3.28
2016-11-13T07:23:35.783Z,3.31
2016-11-13T07:24:36.141Z,3.24
2016-11-13T07:25:36.734Z,3.23
2016-11-13T07:26:36.731Z,3.24
2016-11-13T07:27:36.062Z,3.19
2016-11-13T07:28:35.712Z,3.31
2016-11-13T07:29:36.673Z,3.21
2016-11-13T07:30:36.250Z,3.4
2016-11-13T07:31:35.922Z,3.57
2016-11-13T07:32:36.436Z,3.52
2016-11-13T07:33:36.183Z,3.43
2016-11-13T07:34:35.821Z,3.33
2016-11-13T07:35:35.678Z,3.52
2016-11-13T07:36:35.947Z,3.47
2016-11-13T07:37:35.180Z,3.49
2016-11-13T07:38:35.804Z,3.34
2016-11-13T07:39:35.756Z,3.37
2016-11-13T07:40:35.393Z,3.53
2016-11-13T07:41:36.215Z,3.53
2016-11-13T07:42:35.792Z,3.5
2016-11-13T07:43:36.263Z,3.56
2016-11-13T07:44:36.242Z,3.49
2016-11-13T07:45:36.252Z,3.71
2016-11-13T07:46:35.425Z,3.62
2016-11-13T07:47:35.521Z,3.68
2016-11-13T07:48:36.174Z,3.65
2016-11-13T07:49:34.872Z,3.57
2016-11-13T07:50:36.092Z,3.65
2016-11-13T07:51:36.088Z,3.75
2016-11-13T07:52:34.756Z,3.79
2016-11-13T07:53:35.395Z,3.78
2016-11-13T07:54:35.511Z,3.79
2016-11-13T07:55:36.002Z,3.7
2016-11-13T07:56:35.601Z,3.68
2016-11-13T07:57:35.575Z,3.61
2016-11-13T07:58:35.543Z,3.62
2016-11-13T07:59:34.883Z,3.53
2016-11-13T08:00:35.832Z,3.49
2016-11-13T08:01:34.522Z,3.46
2016-11-13T08:02:34.554Z,3.43
2016-11-13T08:03:35.073Z,3.5
2016-11-13T08:04:35.121Z,3.52
2016-11-13T08:05:35.353Z,3.44
2016-11-13T08:06:35.715Z,3.46
2016-11-13T08:07:35.003Z,3.46
2016-11-13T08:08:35.269Z,3.52
2016-11-13T08:09:35.663Z,3.46
2016-11-13T08:10:34.980Z,3.47
2016-11-13T08:11:34.941Z,3.53
2016-11-13T08:12:34.553Z,3.49
2016-11-13T08:13:35.522Z,3.5
2016-11-13T08:14:34.186Z,3.68
2016-11-13T08:15:34.229Z,3.79
2016-11-13T08:16:35.073Z,3.85
2016-11-13T08:17:34.125Z,3.87
2016-11-13T08:18:34.136Z,3.95
2016-11-13T08:19:34.763Z,3.87
2016-11-13T08:20:35.000Z,3.75
2016-11-13T08:21:33.964Z,3.72
2016-11-13T08:22:34.241Z,3.78
2016-11-13T08:23:34.661Z,3.86
2016-11-13T08:24:34.865Z,3.75
2016-11-13T08:25:34.866Z,3.7
2016-11-13T08:26:34.173Z,3.82
2016-11-13T08:27:34.415Z,3.78
2016-11-13T08:28:34.142Z,3.87
2016-11-13T08:29:33.863Z,3.85
2016-11-13T08:30:34.404Z,3.71
2016-11-13T08:31:35.069Z,3.86
2016-11-13T08:32:34.684Z,3.93
2016-11-13T08:33:34.643Z,3.93
2016-11-13T08:34:34.850Z,3.86
2016-11-13T08:35:34.625Z,3.85
2016-11-13T08:36:33.676Z,3.7
2016-11-13T08:37:34.533Z,3.79
2016-11-13T08:38:34.516Z,3.72
2016-11-13T08:39:34.223Z,3.7
2016-11-13T08:40:34.449Z,3.7
2016-11-13T08:41:34.226Z,3.65
2016-11-13T08:42:34.056Z,3.62
2016-11-13T08:43:34.245Z,3.64
2016-11-13T08:44:34.061Z,3.5
2016-11-13T08:45:34.072Z,3.57
2016-11-13T08:46:33.654Z,3.68
2016-11-13T08:47:33.977Z,3.79
2016-11-13T08:48:33.336Z,3.87
2016-11-13T08:49:34.717Z,3.89
2016-11-13T08:50:33.275Z,3.89
2016-11-13T08:51:34.182Z,3.93
2016-11-13T08:52:34.507Z,3.79
2016-11-13T08:53:33.975Z,3.79
2016-11-13T08:54:33.805Z,3.95
2016-11-13T08:55:33.812Z,4.05
2016-11-13T08:56:34.412Z,4.04
2016-11-13T08:57:34.516Z,4.11
2016-11-13T08:58:33.137Z,4.15
2016-11-13T08:59:33.752Z,4.13
2016-11-13T09:00:33.706Z,4.08
2016-11-13T09:01:34.305Z,3.93
2016-11-13T09:02:33.652Z,3.95
2016-11-13T09:03:34.266Z,3.83
2016-11-13T09:04:33.612Z,3.82
2016-11-13T09:05:33.156Z,3.86
2016-11-13T09:06:33.813Z,3.86
2016-11-13T09:07:33.552Z,3.92
2016-11-13T09:08:33.762Z,3.95
2016-11-13T09:09:33.051Z,3.92
2016-11-13T09:10:33.397Z,4.13
2016-11-13T09:11:33.682Z,4.18
2016-11-13T09:12:33.404Z,4.25
2016-11-13T09:13:34.014Z,4.11
2016-11-13T09:14:33.603Z,4.08
2016-11-13T09:15:32.591Z,4.04
2016-11-13T09:16:32.680Z,3.95
2016-11-13T09:17:32.602Z,3.97
2016-11-13T09:18:33.911Z,3.93
2016-11-13T09:19:33.193Z,4.07
2016-11-13T09:20:33.082Z,4
2016-11-13T09:21:33.067Z,4.05
2016-11-13T09:22:33.036Z,3.93
2016-11-13T09:23:33.105Z,4.03
2016-11-13T09:24:32.733Z,4.25
2016-11-13T09:25:33.695Z,4.21
2016-11-13T09:26:33.032Z,4.13
2016-11-13T09:27:32.862Z,4.07
2016-11-13T09:28:32.965Z,4.04
2016-11-13T09:29:32.862Z,3.82
2016-11-13T09:30:32.975Z,3.87
2016-11-13T09:31:33.396Z,4.05
2016-11-13T09:32:33.544Z,4.11
2016-11-13T09:33:33.508Z,4.01
2016-11-13T09:34:32.804Z,3.92
2016-11-13T09:35:33.445Z,4.05
2016-11-13T09:36:32.815Z,4
2016-11-13T09:37:32.762Z,4.21
2016-11-13T09:38:32.995Z,4.29
2016-11-13T09:39:33.334Z,4.08
2016-11-13T09:40:33.300Z,4.23
2016-11-13T09:41:33.332Z,4.16
2016-11-13T09:42:31.951Z,4.22
2016-11-13T09:43:32.501Z,4.22
2016-11-13T09:44:32.180Z,4.31
2016-11-13T09:45:33.191Z,4.4
2016-11-13T09:46:32.783Z,4.41
2016-11-13T09:47:32.143Z,4.5
2016-11-13T09:48:32.734Z,4.52
2016-11-13T09:49:32.743Z,4.64
2016-11-13T09:50:32.676Z,4.76
2016-11-13T09:51:32.423Z,4.75
2016-11-13T09:52:33.025Z,4.7
2016-11-13T09:53:32.644Z,4.58
2016-11-13T09:54:32.193Z,4.43
2016-11-13T09:55:32.327Z,4.46
2016-11-13T09:56:32.176Z,4.41
2016-11-13T09:57:32.550Z,4.55
2016-11-13T09:58:32.275Z,4.64
2016-11-13T09:59:32.180Z,4.65
2016-11-13T10:00:31.797Z,4.75
2016-11-13T10:01:32.522Z,4.73
2016-11-13T10:02:32.152Z,4.92
2016-11-13T10:03:31.741Z,4.95
2016-11-13T10:04:31.384Z,4.73
2016-11-13T10:05:32.715Z,4.77
2016-11-13T10:06:32.332Z,4.67
2016-11-13T10:07:32.274Z,4.83
2016-11-13T10:08:32.615Z,5.01
2016-11-13T10:09:32.462Z,5.29
2016-11-13T10:10:31.533Z,5.1
2016-11-13T10:11:31.962Z,5.16
2016-11-13T10:12:31.919Z,4.98
2016-11-13T10:13:31.263Z,4.79
2016-11-13T10:14:31.729Z,4.83
2016-11-13T10:15:31.943Z,4.88
2016-11-13T10:16:31.438Z,4.67
2016-11-13T10:17:32.146Z,4.87
2016-11-13T10:18:31.782Z,5.06
2016-11-13T10:19:31.753Z,5.13
2016-11-13T10:20:32.363Z,5.19
2016-11-13T10:21:31.323Z,5.05
2016-11-13T10:22:30.933Z,5.05
2016-11-13T10:23:31.906Z,5.09
2016-11-13T10:24:32.243Z,5.01
2016-11-13T10:25:31.939Z,4.92
2016-11-13T10:26:31.518Z,5.01
2016-11-13T10:27:32.194Z,4.99
2016-11-13T10:28:31.566Z,5.03
2016-11-13T10:29:31.783Z,5.06
2016-11-13T10:30:31.464Z,5.1
2016-11-13T10:31:31.420Z,4.91
2016-11-13T10:32:31.462Z,4.84
2016-11-13T10:33:32.013Z,4.94
2016-11-13T10:34:30.747Z,4.99
2016-11-13T10:35:31.964Z,5.1
2016-11-13T10:36:31.586Z,4.92
2016-11-13T10:37:31.910Z,5.02
2016-11-13T10:38:31.914Z,5.11
2016-11-13T10:39:31.882Z,5.09
2016-11-13T10:40:31.844Z,5.09
2016-11-13T10:41:31.239Z,5.09
2016-11-13T10:42:31.179Z,5.14
2016-11-13T10:43:31.794Z,5.21
2016-11-13T10:44:30.762Z,5.31
2016-11-13T10:45:30.971Z,5.26
2016-11-13T10:46:31.199Z,5.16
2016-11-13T10:47:30.390Z,5.06
2016-11-13T10:48:30.683Z,5.05
2016-11-13T10:49:30.633Z,5.28
2016-11-13T10:50:31.608Z,5.29
2016-11-13T10:51:31.224Z,5.34
2016-11-13T10:52:30.862Z,5.29
2016-11-13T10:53:31.393Z,5.39
2016-11-13T10:54:31.130Z,5.46
2016-11-13T10:55:31.460Z,5.38
2016-11-13T10:56:30.953Z,5.46
2016-11-13T10:57:30.143Z,5.63
2016-11-13T10:58:31.419Z,5.73
2016-11-13T10:59:31.405Z,5.46
2016-11-13T11:00:30.763Z,5.59
2016-11-13T11:01:30.747Z,5.81
2016-11-13T11:02:30.632Z,5.93
2016-11-13T11:03:30.942Z,5.68
2016-11-13T11:04:30.893Z,5.6
2016-11-13T11:05:31.154Z,5.55
2016-11-13T11:06:30.191Z,5.74
2016-11-13T11:07:30.556Z,5.88
2016-11-13T11:08:30.481Z,5.9
2016-11-13T11:09:29.932Z,5.85
2016-11-13T11:10:30.752Z,5.81
2016-11-13T11:11:31.137Z,5.56
2016-11-13T11:12:31.099Z,5.39
2016-11-13T11:13:31.057Z,5.46
2016-11-13T11:14:30.052Z,5.52
2016-11-13T11:15:30.644Z,5.41
2016-11-13T11:16:30.003Z,5.14
2016-11-13T11:17:29.666Z,5.23
2016-11-13T11:18:30.433Z,5.37
2016-11-13T11:19:31.055Z,5.68
2016-11-13T11:20:30.532Z,5.83
2016-11-13T11:21:30.900Z,5.92
2016-11-13T11:22:30.242Z,5.71
2016-11-13T11:23:30.213Z,5.73
2016-11-13T11:24:30.212Z,5.8
2016-11-13T11:25:30.801Z,5.95
2016-11-13T11:26:30.132Z,5.7
2016-11-13T11:27:30.773Z,5.75
2016-11-13T11:28:29.891Z,5.95
2016-11-13T11:29:29.962Z,6.07
2016-11-13T11:30:30.674Z,6.29
2016-11-13T11:31:30.723Z,6.13
2016-11-13T11:32:29.893Z,6.3
2016-11-13T11:33:30.652Z,6.33
2016-11-13T11:34:29.592Z,6.37
2016-11-13T11:35:29.505Z,5.98
2016-11-13T11:36:29.806Z,5.86
2016-11-13T11:37:29.511Z,5.85
2016-11-13T11:38:29.815Z,5.96
2016-11-13T11:39:30.483Z,5.88
2016-11-13T11:40:30.075Z,6.04
2016-11-13T11:41:29.745Z,6.25
2016-11-13T11:42:30.393Z,6.29
2016-11-13T11:43:29.313Z,5.93
2016-11-13T11:44:29.673Z,5.8
2016-11-13T11:45:29.984Z,6.04
2016-11-13T11:46:30.313Z,6.11
2016-11-13T11:47:29.582Z,6.27
2016-11-13T11:48:29.013Z,6.11
2016-11-13T11:49:29.222Z,6.08
2016-11-13T11:50:29.872Z,6.1
2016-11-13T11:51:28.894Z,5.9
2016-11-13T11:52:29.774Z,5.99
2016-11-13T11:53:29.613Z,6.13
2016-11-13T11:54:29.506Z,6.04
2016-11-13T11:55:29.091Z,6.13
2016-11-13T11:56:29.382Z,6.1
2016-11-13T11:57:29.685Z,6.21
2016-11-13T11:58:30.016Z,5.95
2016-11-13T11:59:29.361Z,5.96
2016-11-13T12:00:28.783Z,6.14
2016-11-13T12:01:29.942Z,6.35
2016-11-13T12:02:29.577Z,6.44
2016-11-13T12:03:29.328Z,6.57
2016-11-13T12:04:29.204Z,6.69
2016-11-13T12:05:29.489Z,6.57
2016-11-13T12:06:28.571Z,6.47
2016-11-13T12:07:29.835Z,6.36
2016-11-13T12:08:29.642Z,6.43
2016-11-13T12:09:29.401Z,6.57
2016-11-13T12:10:29.088Z,6.69
2016-11-13T12:11:29.094Z,6.66
2016-11-13T12:12:28.942Z,6.52
2016-11-13T12:13:29.300Z,6.44
2016-11-13T12:14:29.020Z,6.45
2016-11-13T12:15:29.250Z,6.26
2016-11-13T12:16:29.224Z,6.29
2016-11-13T12:17:28.572Z,6.04
2016-11-13T12:18:28.501Z,6.22
2016-11-13T12:19:28.774Z,6.48
2016-11-13T12:20:28.828Z,6.63
2016-11-13T12:21:29.527Z,6.69
2016-11-13T12:22:29.446Z,6.65
2016-11-13T12:23:28.781Z,6.4
2016-11-13T12:24:29.044Z,6.59
2016-11-13T12:25:28.443Z,6.57
2016-11-13T12:26:29.363Z,6.63
2016-11-13T12:27:28.085Z,6.73
2016-11-13T12:28:28.809Z,6.66
2016-11-13T12:29:28.530Z,6.77
2016-11-13T12:30:28.580Z,6.91
2016-11-13T12:31:28.570Z,6.88
2016-11-13T12:32:28.549Z,6.81
2016-11-13T12:33:29.230Z,6.73
2016-11-13T12:34:28.118Z,6.69
2016-11-13T12:35:28.570Z,6.72
2016-11-13T12:36:27.821Z,6.77
2016-11-13T12:37:27.833Z,6.45
2016-11-13T12:38:28.718Z,6.32
2016-11-13T12:39:28.473Z,6.51
2016-11-13T12:40:28.211Z,6.62
2016-11-13T12:41:28.509Z,6.69
2016-11-13T12:42:27.778Z,6.65
2016-11-13T12:43:28.002Z,6.55
2016-11-13T12:44:27.651Z,6.43
2016-11-13T12:45:28.930Z,6.45
2016-11-13T12:46:28.520Z,6.52
2016-11-13T12:47:28.489Z,6.7
2016-11-13T12:48:28.223Z,6.8
2016-11-13T12:49:28.833Z,6.73
2016-11-13T12:50:27.812Z,6.72
2016-11-13T12:51:28.172Z,6.72
2016-11-13T12:52:28.160Z,6.73
2016-11-13T12:53:27.759Z,6.69
2016-11-13T12:54:28.394Z,6.69
2016-11-13T12:55:28.072Z,6.54
2016-11-13T12:56:27.360Z,6.62
2016-11-13T12:57:28.509Z,6.47
2016-11-13T12:58:27.330Z,6.41
2016-11-13T12:59:28.080Z,6.47
2016-11-13T13:00:28.071Z,6.37
2016-11-13T13:01:27.943Z,6.37
2016-11-13T13:02:27.770Z,6.41
2016-11-13T13:03:27.865Z,6.45
2016-11-13T13:04:28.134Z,6.44
2016-11-13T13:05:28.101Z,6.44
2016-11-13T13:06:27.821Z,6.43
2016-11-13T13:07:27.442Z,6.48
2016-11-13T13:08:28.032Z,6.57
2016-11-13T13:09:28.042Z,6.41
2016-11-13T13:10:27.300Z,6.48
2016-11-13T13:11:27.320Z,6.73
2016-11-13T13:12:27.913Z,6.75
2016-11-13T13:13:27.281Z,6.81
2016-11-13T13:14:27.747Z,6.8
2016-11-13T13:15:27.921Z,6.8
2016-11-13T13:16:27.585Z,6.77
2016-11-13T13:17:27.823Z,6.8
2016-11-13T13:18:27.809Z,6.88
2016-11-13T13:19:28.115Z,6.88
2016-11-13T13:20:27.510Z,6.8